Main page
METAR-TAF:

METAR-TAF

Airports :

Ardabil Airport

Ardabil, Iran

latitude: 38-19-35N, longitude: 048-25-28E, elevation: 1315 m

Current weather observation

The report was made 2 hours and 36 minutes ago, at 15:00 UTC
Wind 19 kt from the Northeast
Temperature 24°C
Humidity 29%
Pressure 1015 hPa
Visibility 10 km or more
no clouds below 1500 m and no cumulonimbus

METAR: OITL 221500Z 05019KT CAVOK 24/05 Q1015

Time: 22:06 (17:36 UTC)

Forecast

The report was made 3 hours and 6 minutes ago, at 14:30 UTC
Forecast valid from 22 at 15 UTC to 22 at 24 UTC
Wind 12 kt from the South/Southeast
Visibility: 8000 m
Scattered clouds at a height of 10000 ft
Temporary
from 20 at 15 UTC to 22 at 17 UTC
Wind 20 kt from the East/Northeast with gusts up to 34 kt
Probability 30% :
Temporary
from 22 at 17 UTC to 22 at 24 UTC
Visibility: 0500 m
fog

TAF: OITL 221430Z 2215/2224 15012KT 8000 SCT100 TEMPO 2015/2217 07020G34KT PROB30 TEMPO 2217/2224 0500 FG

Weather observations and forecasts of more than 4000 airports (METAR and TAF reports).

The available stations are represented by yellow and red dots on the map.

Hover mouse over dot to see the name of the station.

Then click to see weather observations and forecasts.

To change the map : click on the green buttons with a black cross to zoom in, on the green button with a dash to zoom out, or on the green arrows for adjacent maps.


METAR-TAF: